MyWebLog Booking Liste

 

Nyhetsmelding

Kopirett © 2014 Værnes Flyklubb. Alle rettigheter reservert.
Joomla! er fri programvare utgitt under GNU/GPL License.
 

METAR

ENVA 200820Z 23014KT 9999 BKN020 02/M01 Q0984 TEMPO 2000 -SHSN BKN010 RMK WIND 670FT 24014KT

TAF ENVA 2006/2106 VRB07KT 9999 FEW020 BKN050 TEMPO 2006/2106 1500 SHSN VV008 PROB30 TEMPO 2006/2012 TS BKN012CB BECMG 2008/2011 25015KT TEMPO 2014/2018 30020G30KT